Maryland METAR Reports


Distance/Direction noted is from Ellicott City, MD as the crow flies

KCBE - Cumberland - 118 miles WNW
Updated: Thu, 07/24/2014 12:17 AM
Mostly Cloudy
Mostly Cloudy
 Wind from N
Wind: N 7 mph
Temperature: 77°F
Dew Point: 63°F
Humidity: 61%
Barometer: 29.97 inHg
Clouds: Mostly Cloudy
Visibility: 10 miles
Cloud Details: Partly Cloudy 5000 ft
Mostly Cloudy 6000 ft
Mostly Cloudy 9000 ft
2014/07/24 04:17 KCBE 240417Z AUTO 35006KT 10SM SCT050 BKN060 BKN090 25/17 A2997 RMK AO1
KHGR - Hagerstown - 57 miles NW
Updated: Wed, 07/23/2014 11:53 PM
Partly Cloudy
Partly Cloudy
 Wind from calm
Wind: Calm
Temperature: 75°F
Dew Point: 68°F
Humidity: 78%
Barometer: 29.89 inHg
Clouds: Partly Cloudy
Visibility: 10 miles
Cloud Details: Partly Cloudy 12000 ft
2014/07/24 03:53 KHGR 240353Z AUTO 00000KT 10SM SCT120 24/20 A2989 RMK AO2 SLP124 T02440200
 
KFDK - Frederick - 34 miles NW
Updated: Thu, 07/24/2014 12:15 AM
Clear
Clear
 Wind from calm
Wind: Calm
Temperature: 72°F
Dew Point: 72°F
Humidity: 100%
Barometer: 29.90 inHg
Clouds: Clear
Visibility: 7 miles
2014/07/24 04:15 KFDK 240415Z AUTO 00000KT 7SM CLR 22/22 A2990 RMK AO2 LTG DSNT E AND SE
KGAI - Gaithersburg - 26 miles SW
Updated: Thu, 07/24/2014 12:15 AM
Clear
Clear
 Wind from calm
Wind: Calm
Temperature: 70°F
Dew Point: 70°F
Humidity: 100%
Barometer: 29.91 inHg
Clouds: Clear
Visibility: 3 miles
2014/07/24 04:15 KGAI 240415Z AUTO 00000KT 3SM CLR 21/21 A2991 RMK AO1
 
KBWI - BWI Airport - 15 miles SE
Updated: Wed, 07/23/2014 11:54 PM
Partly Cloudy
Partly Cloudy
 Wind from varies
Wind: varies 3 mph
Temperature: 75°F
Dew Point: 72°F
Humidity: 89%
Barometer: 29.86 inHg
Clouds: Partly Cloudy
Visibility: 8 miles
Cloud Details: Few Clouds 1000 ft
Partly Cloudy 5500 ft
Partly Cloudy 9000 ft
Partly Cloudy 20000 ft
2014/07/24 03:54 KBWI 240354Z VRB03KT 8SM FEW010 SCT055 SCT090 SCT200 24/22 A2986 RMK AO2 SLP109 T02390222
KNAK - Annapolis - 32 miles SSE
Updated: Wed, 07/23/2014 11:54 PM
Overcast
Overcast
 Wind from NNE
Wind: NNE 5 mph
Temperature: 79°F
Dew Point: 72°F
Humidity: 79%
Barometer: 29.85 inHg
Clouds: Overcast
Visibility: 9 miles
Cloud Details: Overcast 6000 ft
2014/07/24 03:54 KNAK 240354Z AUTO 02004KT 9SM OVC060 26/22 A2985 RMK AO2 SLP111 T02560222
 
KESN - Easton - 63 miles SE
Updated: Thu, 07/24/2014 12:28 AM
Partly Cloudy
Partly Cloudy
 Wind from calm
Wind: Calm
Temperature: 75°F
Dew Point: 75°F
Humidity: 100%
Barometer: 29.87 inHg
Clouds: Partly Cloudy
Visibility: 10 miles
Cloud Details: Partly Cloudy 12000 ft
2014/07/24 04:28 KESN 240428Z AUTO 00000KT 10SM SCT120 24/24 A2987 RMK AO2 T02350235
KSBY - Salisbury - 112 miles SE
Updated: Tue, 07/15/2014 5:28 PM
NOT Current
Heavy rain, Mostly cloudy
Heavy rain, Mostly cloudy
 Wind from SSW
Wind: SSW 14 mph, Gust: 37 mph
Temperature: 81°F
Heat Index: 86°F
Dew Point: 73°F
Humidity: 79%
Barometer: 29.78 inHg
Summary: Heavy Rain
Clouds: Mostly Cloudy
Visibility: 1/2 mile
Cloud Details: Few Clouds 600 ft
Partly Cloudy 1600 ft
Mostly Cloudy 2800 ft
2014/07/15 21:28 KSBY 152128Z AUTO 20012G32KT 1/2SM +RA FEW006 SCT016 BKN028 27/23 A2978 RMK AO2 PK WND 21032/2123 RAB26 P0028 TSNO